Time;durP1;ratioP1;P1;durP2;ratioP2;P2;SDS_P1;SDS_P2;PMS_P1;PMS_P2;Temp;Humidity;BMP_temperature;BMP_pressure;BME280_temperature;BME280_humidity;BME280_pressure;Samples;Min_cycle;Max_cycle;Signal;HPM_P1;HPM_P2
2023/12/23 00:00:54;;;;;;;2.35;1.00;;;19.80;71.80;;;;;;2068342;28;20030;-52
2023/12/23 00:01:56;;;;;;;3.05;1.00;;;19.80;71.80;;;;;;2066641;28;20069;-52
2023/12/23 00:02:57;;;;;;;2.50;1.13;;;19.80;71.80;;;;;;2069699;28;20018;-52
2023/12/23 00:03:59;;;;;;;1.90;0.80;;;19.80;71.90;;;;;;2070666;28;20061;-52
2023/12/23 00:04:59;;;;;;;1.45;0.68;;;19.80;71.90;;;;;;2069455;28;20586;-54
2023/12/23 00:06:00;;;;;;;1.45;0.70;;;19.80;71.80;;;;;;2067613;28;20025;-53
2023/12/23 00:07:01;;;;;;;4.18;0.82;;;19.90;71.80;;;;;;2067501;28;20062;-54
2023/12/23 00:08:01;;;;;;;2.00;0.80;;;19.90;71.80;;;;;;2068817;28;20084;-52
2023/12/23 00:09:02;;;;;;;1.25;0.75;;;19.80;71.80;;;;;;2066574;28;20941;-53
2023/12/23 00:10:03;;;;;;;0.88;0.60;;;19.80;71.80;;;;;;2067846;28;20133;-54
2023/12/23 00:11:04;;;;;;;4.38;0.88;;;19.80;71.80;;;;;;2066721;28;20030;-53
2023/12/23 00:12:04;;;;;;;3.83;1.15;;;19.80;71.80;;;;;;2068792;28;20492;-54
2023/12/23 00:13:05;;;;;;;1.77;1.02;;;19.80;71.70;;;;;;2068723;28;20029;-54
2023/12/23 00:14:05;;;;;;;2.58;1.08;;;19.80;71.80;;;;;;2069278;28;20076;-53
2023/12/23 00:15:07;;;;;;;2.35;0.90;;;19.70;71.70;;;;;;2068659;28;20034;-53
2023/12/23 00:16:07;;;;;;;2.17;0.80;;;19.80;71.70;;;;;;2068242;28;20061;-55
2023/12/23 00:17:08;;;;;;;1.75;0.70;;;19.80;71.70;;;;;;2067822;28;20017;-52
2023/12/23 00:18:08;;;;;;;2.55;1.05;;;19.80;71.70;;;;;;2067346;28;20026;-53
2023/12/23 00:19:09;;;;;;;2.72;0.80;;;19.80;71.60;;;;;;2067883;28;20477;-51
2023/12/23 00:20:10;;;;;;;2.45;0.70;;;19.80;71.60;;;;;;2067437;28;20280;-51
2023/12/23 00:21:10;;;;;;;1.60;0.60;;;19.80;71.50;;;;;;2070238;28;20129;-52
2023/12/23 00:22:11;;;;;;;3.70;0.95;;;19.80;71.50;;;;;;2069857;28;20068;-51
2023/12/23 00:23:12;;;;;;;3.85;0.82;;;19.80;71.50;;;;;;2068888;28;20034;-52
2023/12/23 00:24:13;;;;;;;2.65;0.73;;;19.70;71.40;;;;;;2070715;28;20056;-53
2023/12/23 00:25:13;;;;;;;2.05;0.82;;;19.80;71.50;;;;;;2070739;28;20554;-55
2023/12/23 00:26:14;;;;;;;3.35;0.85;;;19.80;71.50;;;;;;2067898;28;20493;-53
2023/12/23 00:27:15;;;;;;;2.20;0.80;;;19.60;71.40;;;;;;2067203;28;20026;-52
2023/12/23 00:28:15;;;;;;;2.25;0.70;;;19.70;71.40;;;;;;2067143;28;20062;-53
2023/12/23 00:29:16;;;;;;;4.38;0.95;;;19.70;71.30;;;;;;2068015;28;20389;-53
2023/12/23 00:30:16;;;;;;;1.55;0.63;;;19.70;71.30;;;;;;2067080;28;20457;-56
2023/12/23 00:31:17;;;;;;;2.05;0.70;;;19.70;71.90;;;;;;2069553;28;20270;-55
2023/12/23 00:32:17;;;;;;;3.45;0.90;;;19.70;71.30;;;;;;2067297;28;20232;-52
2023/12/23 00:33:18;;;;;;;2.38;0.80;;;19.70;71.30;;;;;;2069588;28;20022;-53
2023/12/23 00:34:19;;;;;;;1.77;0.73;;;19.80;71.40;;;;;;2067152;28;20018;-53
2023/12/23 00:35:20;;;;;;;2.30;0.80;;;19.70;71.30;;;;;;2067367;28;20014;-51
2023/12/23 00:36:20;;;;;;;5.75;0.90;;;19.70;71.30;;;;;;2070659;28;20022;-53
2023/12/23 00:37:21;;;;;;;1.65;0.68;;;19.70;71.30;;;;;;2067721;28;20019;-53
2023/12/23 00:38:21;;;;;;;3.25;0.80;;;19.70;71.20;;;;;;2069784;28;20029;-55
2023/12/23 00:39:22;;;;;;;3.60;0.80;;;19.70;71.20;;;;;;2069772;28;20056;-53
2023/12/23 00:40:22;;;;;;;2.17;0.80;;;19.60;71.10;;;;;;2067457;28;20030;-51
2023/12/23 00:41:23;;;;;;;3.92;0.95;;;19.80;71.20;;;;;;2066430;28;20033;-52
2023/12/23 00:42:23;;;;;;;2.42;0.82;;;19.70;71.10;;;;;;2066920;28;20029;-55
2023/12/23 00:43:24;;;;;;;4.07;1.10;;;19.70;71.10;;;;;;2068991;28;20148;-55
2023/12/23 00:44:25;;;;;;;1.58;0.60;;;19.70;71.00;;;;;;2070209;28;20022;-55
2023/12/23 00:45:25;;;;;;;1.27;0.65;;;19.70;71.00;;;;;;2071042;28;20022;-51
2023/12/23 00:46:28;;;;;;;2.63;0.70;;;19.80;71.10;;;;;;2064794;28;20307;-53
2023/12/23 00:47:28;;;;;;;1.92;0.52;;;19.70;71.10;;;;;;2068567;28;20021;-52
2023/12/23 00:48:29;;;;;;;3.30;1.02;;;19.70;71.10;;;;;;2068734;28;20037;-55
2023/12/23 00:49:29;;;;;;;2.92;0.90;;;19.70;71.10;;;;;;2070614;28;20053;-55
2023/12/23 00:50:30;;;;;;;4.57;1.00;;;19.70;71.10;;;;;;2069841;28;20018;-52
2023/12/23 00:51:30;;;;;;;3.47;0.85;;;19.60;71.00;;;;;;2067147;28;20085;-52
2023/12/23 00:52:31;;;;;;;1.35;0.52;;;19.70;71.00;;;;;;2067679;28;20029;-52
2023/12/23 00:53:32;;;;;;;1.42;0.60;;;19.70;71.00;;;;;;2067746;28;20045;-52
2023/12/23 00:54:32;;;;;;;1.98;0.60;;;19.70;71.00;;;;;;2065359;28;20014;-55
2023/12/23 00:55:33;;;;;;;2.53;0.80;;;19.70;71.00;;;;;;2068225;28;20488;-54
2023/12/23 00:56:33;;;;;;;4.72;0.90;;;19.60;71.00;;;;;;2067937;28;20481;-52
2023/12/23 00:57:34;;;;;;;2.53;0.60;;;19.60;71.00;;;;;;2067147;28;20034;-53
2023/12/23 00:58:35;;;;;;;4.05;0.90;;;19.70;71.00;;;;;;2066187;28;20018;-54
2023/12/23 00:59:35;;;;;;;3.38;0.70;;;19.60;70.90;;;;;;2068944;28;20053;-52
2023/12/23 01:00:37;;;;;;;2.90;0.60;;;19.60;70.90;;;;;;2071067;28;20026;-55
2023/12/23 01:01:41;;;;;;;2.92;0.57;;;19.70;70.90;;;;;;2068869;28;20309;-53
2023/12/23 01:02:42;;;;;;;3.22;0.95;;;19.70;70.90;;;;;;2069005;28;20014;-52
2023/12/23 01:03:43;;;;;;;1.30;0.73;;;19.60;70.90;;;;;;2069379;28;20010;-52
2023/12/23 01:04:44;;;;;;;3.25;0.75;;;19.60;71.00;;;;;;2072090;28;20025;-52
2023/12/23 01:05:44;;;;;;;2.20;0.70;;;19.60;70.90;;;;;;2068665;28;20381;-54
2023/12/23 01:06:45;;;;;;;4.75;0.70;;;19.60;70.90;;;;;;2069676;28;20551;-52
2023/12/23 01:07:45;;;;;;;3.35;0.93;;;19.70;71.00;;;;;;2071496;28;20026;-55
2023/12/23 01:08:46;;;;;;;3.00;0.75;;;19.60;70.90;;;;;;2072129;28;20024;-56
2023/12/23 01:09:47;;;;;;;1.58;0.70;;;19.60;70.90;;;;;;2072265;28;20484;-53
2023/12/23 01:10:47;;;;;;;2.50;0.85;;;19.60;70.90;;;;;;2070937;28;20076;-53
2023/12/23 01:11:48;;;;;;;2.83;0.82;;;19.70;70.90;;;;;;2069329;28;20029;-53
2023/12/23 01:12:48;;;;;;;3.40;0.85;;;19.60;70.80;;;;;;2068564;28;20064;-54
2023/12/23 01:13:49;;;;;;;3.38;1.10;;;19.60;70.80;;;;;;2068946;28;20030;-53
2023/12/23 01:14:49;;;;;;;2.08;0.73;;;19.60;70.80;;;;;;2069172;28;20048;-51
2023/12/23 01:15:50;;;;;;;1.63;1.00;;;19.60;70.80;;;;;;2069180;28;20440;-54
2023/12/23 01:16:50;;;;;;;1.55;0.70;;;19.60;70.90;;;;;;2071686;28;20385;-52
2023/12/23 01:17:51;;;;;;;2.53;0.80;;;19.60;70.90;;;;;;2069046;28;20121;-53
2023/12/23 01:18:51;;;;;;;3.20;0.90;;;19.60;71.00;;;;;;2072035;28;20033;-54
2023/12/23 01:19:52;;;;;;;3.63;0.80;;;19.60;70.90;;;;;;2069947;28;20022;-53
2023/12/23 01:20:52;;;;;;;2.70;0.80;;;19.60;71.00;;;;;;2071933;28;20504;-53
2023/12/23 01:21:53;;;;;;;1.88;0.70;;;19.60;70.90;;;;;;2068652;28;20492;-51
2023/12/23 01:22:53;;;;;;;2.55;0.95;;;19.70;70.90;;;;;;2069549;28;20485;-55
2023/12/23 01:23:54;;;;;;;1.65;0.70;;;19.60;70.90;;;;;;2070358;28;20609;-55
2023/12/23 01:24:55;;;;;;;4.82;0.70;;;19.60;70.80;;;;;;2070715;28;20406;-52
2023/12/23 01:25:55;;;;;;;1.48;0.80;;;19.60;70.80;;;;;;2069264;28;20030;-52
2023/12/23 01:26:57;;;;;;;4.50;0.90;;;19.60;70.80;;;;;;2071264;28;20056;-53
2023/12/23 01:28:04;;;;;;;3.15;0.90;;;19.60;70.80;;;;;;2066704;28;20072;-55
2023/12/23 01:29:04;;;;;;;2.40;0.60;;;19.60;70.80;;;;;;2070799;28;20010;-53
2023/12/23 01:30:06;;;;;;;3.60;0.85;;;19.60;70.70;;;;;;2069758;28;20036;-52
2023/12/23 01:31:06;;;;;;;2.50;0.70;;;19.60;70.70;;;;;;2069377;28;20441;-51
2023/12/23 01:32:07;;;;;;;3.53;0.60;;;19.60;70.70;;;;;;2070603;28;20042;-52
2023/12/23 01:33:07;;;;;;;2.63;1.20;;;19.60;70.80;;;;;;2065507;28;20037;-51
2023/12/23 01:34:08;;;;;;;2.63;0.93;;;19.60;70.80;;;;;;2071602;28;20022;-55
2023/12/23 01:35:08;;;;;;;2.22;0.77;;;19.60;70.80;;;;;;2068695;28;20028;-56
2023/12/23 01:36:09;;;;;;;2.35;0.68;;;19.60;70.70;;;;;;2067023;28;20026;-53
2023/12/23 01:37:10;;;;;;;3.00;0.88;;;19.60;70.70;;;;;;2069693;28;20077;-52
2023/12/23 01:38:10;;;;;;;2.38;1.00;;;19.60;70.70;;;;;;2067438;28;20331;-52
2023/12/23 01:39:11;;;;;;;4.00;0.60;;;19.60;70.70;;;;;;2069247;28;20083;-53
2023/12/23 01:40:11;;;;;;;3.58;0.73;;;19.60;70.70;;;;;;2069621;28;20445;-54
2023/12/23 01:41:12;;;;;;;2.30;1.00;;;19.60;70.70;;;;;;2068124;28;20022;-54
2023/12/23 01:42:12;;;;;;;2.15;0.65;;;19.60;70.70;;;;;;2069697;28;20033;-52
2023/12/23 01:43:13;;;;;;;2.45;0.80;;;19.60;70.60;;;;;;2069615;28;20033;-56
2023/12/23 01:44:13;;;;;;;5.32;0.90;;;19.60;70.60;;;;;;2070193;28;20122;-51
2023/12/23 01:45:14;;;;;;;1.70;0.70;;;19.60;70.60;;;;;;2069194;28;20037;-52
2023/12/23 01:46:15;;;;;;;3.95;1.00;;;19.60;70.50;;;;;;2068593;28;20018;-55
2023/12/23 01:47:16;;;;;;;2.10;0.68;;;19.40;70.50;;;;;;2070432;28;20523;-51
2023/12/23 01:48:17;;;;;;;1.23;0.63;;;19.60;70.60;;;;;;2069679;28;20918;-52
2023/12/23 01:49:20;;;;;;;3.50;1.02;;;19.50;70.50;;;;;;2070272;28;20014;-57
2023/12/23 01:50:22;;;;;;;2.67;0.68;;;19.50;70.50;;;;;;2069521;28;20029;-56
2023/12/23 01:51:23;;;;;;;2.08;0.60;;;19.60;70.60;;;;;;2067997;28;20021;-55
2023/12/23 01:52:24;;;;;;;4.82;0.80;;;19.60;70.50;;;;;;2066753;28;20426;-51
2023/12/23 01:53:25;;;;;;;1.85;0.70;;;19.60;70.60;;;;;;2070635;28;20648;-55
2023/12/23 01:54:26;;;;;;;2.50;0.70;;;19.50;70.50;;;;;;2065403;28;20397;-52
2023/12/23 01:55:28;;;;;;;3.85;0.75;;;19.60;70.50;;;;;;2070047;28;20555;-52
2023/12/23 01:56:28;;;;;;;3.17;0.70;;;19.50;70.40;;;;;;2072091;28;20102;-51
2023/12/23 01:57:29;;;;;;;5.15;0.98;;;19.50;70.40;;;;;;2068300;28;20045;-53
2023/12/23 01:58:30;;;;;;;3.03;0.80;;;19.60;70.50;;;;;;2069032;28;20049;-54
2023/12/23 01:59:30;;;;;;;2.05;0.75;;;19.50;70.50;;;;;;2070029;28;20076;-52
2023/12/23 02:00:31;;;;;;;3.58;0.88;;;19.50;70.40;;;;;;2069376;28;20022;-52
2023/12/23 02:01:32;;;;;;;4.10;0.82;;;19.50;70.50;;;;;;2068520;28;20057;-55
2023/12/23 02:02:38;;;;;;;2.72;0.80;;;19.40;70.50;;;;;;2068897;28;20019;-52
2023/12/23 02:03:39;;;;;;;1.80;0.70;;;19.50;70.50;;;;;;2068710;28;20033;-52
2023/12/23 02:04:40;;;;;;;3.70;0.80;;;19.50;70.60;;;;;;2068763;28;20018;-53
2023/12/23 02:05:42;;;;;;;2.67;0.85;;;19.50;70.50;;;;;;2068372;28;20492;-52
2023/12/23 02:06:42;;;;;;;2.65;0.70;;;19.50;71.10;;;;;;2069394;28;20041;-54
2023/12/23 02:07:45;;;;;;;1.63;0.70;;;19.50;70.50;;;;;;2071187;28;20487;-52
2023/12/23 02:08:45;;;;;;;1.42;0.65;;;19.50;70.50;;;;;;2068782;28;20017;-52
2023/12/23 02:09:46;;;;;;;1.90;0.70;;;19.50;70.50;;;;;;2069030;28;20018;-53
2023/12/23 02:10:53;;;;;;;1.70;0.80;;;19.50;70.50;;;;;;2069812;28;20057;-53
2023/12/23 02:12:19;;;;;;;1.10;0.50;;;19.50;70.50;;;;;;2070590;28;20022;-52
2023/12/23 02:13:26;;;;;;;4.22;0.90;;;19.50;70.60;;;;;;2067684;28;20033;-52
2023/12/23 02:14:33;;;;;;;1.58;0.70;;;19.50;70.50;;;;;;2071046;28;20022;-54
2023/12/23 02:15:35;;;;;;;2.45;0.70;;;19.50;70.40;;;;;;2068877;28;20085;-53
2023/12/23 02:16:36;;;;;;;1.92;0.60;;;19.40;70.30;;;;;;2065883;28;20096;-54
2023/12/23 02:17:39;;;;;;;3.35;0.75;;;19.50;70.40;;;;;;2070638;28;20432;-52
2023/12/23 02:18:40;;;;;;;2.30;0.90;;;19.50;70.40;;;;;;2068277;28;20025;-53
2023/12/23 02:19:41;;;;;;;1.40;0.63;;;19.50;70.40;;;;;;2068897;28;20026;-54
2023/12/23 02:20:41;;;;;;;1.42;0.60;;;19.50;70.40;;;;;;2067671;28;20030;-52
2023/12/23 02:21:42;;;;;;;2.90;0.60;;;19.40;70.30;;;;;;2069302;28;20097;-52
2023/12/23 02:22:42;;;;;;;2.35;0.70;;;19.40;70.30;;;;;;2066030;28;20106;-51
2023/12/23 02:23:43;;;;;;;3.80;0.60;;;19.50;70.40;;;;;;2068845;28;20536;-54
2023/12/23 02:24:43;;;;;;;1.42;0.68;;;19.40;70.30;;;;;;2068963;28;20684;-53
2023/12/23 02:25:49;;;;;;;1.58;0.70;;;19.40;70.30;;;;;;2069139;28;20104;-53
2023/12/23 02:26:53;;;;;;;2.13;0.80;;;19.50;70.40;;;;;;2069371;28;20018;-52
2023/12/23 02:27:55;;;;;;;4.13;0.80;;;19.40;70.30;;;;;;2068587;28;20026;-53
2023/12/23 02:28:58;;;;;;;3.30;0.80;;;19.50;70.40;;;;;;2068702;28;20030;-53
2023/12/23 02:29:59;;;;;;;1.80;0.60;;;19.40;70.40;;;;;;2069196;28;20045;-54
2023/12/23 02:31:00;;;;;;;1.40;0.80;;;19.40;70.40;;;;;;2066073;28;20022;-54
2023/12/23 02:32:01;;;;;;;2.03;0.70;;;19.40;70.40;;;;;;2071812;28;20056;-51
2023/12/23 02:33:02;;;;;;;2.35;0.80;;;19.40;70.30;;;;;;2068998;28;20033;-53
2023/12/23 02:34:03;;;;;;;2.80;0.70;;;19.40;70.40;;;;;;2068533;28;20018;-53
2023/12/23 02:35:05;;;;;;;2.20;0.70;;;19.40;70.40;;;;;;2069824;28;20118;-51
2023/12/23 02:36:06;;;;;;;2.47;0.85;;;19.40;70.40;;;;;;2069141;28;20096;-53
2023/12/23 02:37:06;;;;;;;1.45;0.60;;;19.40;70.50;;;;;;2069142;28;20104;-54
2023/12/23 02:38:07;;;;;;;4.00;0.70;;;19.40;70.50;;;;;;2070944;28;20057;-54
2023/12/23 02:39:08;;;;;;;1.95;0.70;;;19.50;70.50;;;;;;2066801;28;20027;-53
2023/12/23 02:40:09;;;;;;;3.33;0.90;;;19.50;70.50;;;;;;2070245;28;20077;-53
2023/12/23 02:41:09;;;;;;;3.17;0.88;;;19.40;71.10;;;;;;2068949;28;20413;-52
2023/12/23 02:42:10;;;;;;;3.17;0.60;;;19.40;70.50;;;;;;2068154;28;20026;-55
2023/12/23 02:43:11;;;;;;;1.65;0.55;;;19.40;70.50;;;;;;2068926;28;20099;-52
2023/12/23 02:44:11;;;;;;;2.03;0.80;;;19.40;70.50;;;;;;2070492;28;20328;-55
2023/12/23 02:45:12;;;;;;;1.30;0.60;;;19.40;70.50;;;;;;2070347;28;20022;-52
2023/12/23 02:46:12;;;;;;;2.75;0.70;;;19.30;70.50;;;;;;2069767;28;20405;-51
2023/12/23 02:47:13;;;;;;;1.85;0.70;;;19.40;70.50;;;;;;2069747;28;20021;-53
2023/12/23 02:48:14;;;;;;;1.85;0.85;;;19.40;70.50;;;;;;2066435;28;20111;-52
2023/12/23 02:49:14;;;;;;;2.05;0.60;;;19.50;70.50;;;;;;2071652;28;20493;-52
2023/12/23 02:50:15;;;;;;;1.80;0.88;;;19.40;70.50;;;;;;2070752;28;20025;-54
2023/12/23 02:51:15;;;;;;;1.77;0.70;;;19.40;70.50;;;;;;2068384;28;20022;-52
2023/12/23 02:52:16;;;;;;;2.40;0.70;;;19.40;70.50;;;;;;2068872;28;20057;-52
2023/12/23 02:53:17;;;;;;;3.85;0.70;;;19.40;70.50;;;;;;2071027;28;20010;-54
2023/12/23 02:54:17;;;;;;;3.60;0.70;;;19.40;70.50;;;;;;2068271;28;20025;-52
2023/12/23 02:55:18;;;;;;;2.95;0.50;;;19.50;70.60;;;;;;2071589;28;20104;-52
2023/12/23 02:56:19;;;;;;;1.27;0.75;;;19.40;70.50;;;;;;2066598;28;20105;-52
2023/12/23 02:57:19;;;;;;;2.58;0.70;;;19.40;70.50;;;;;;2069364;28;20069;-55
2023/12/23 02:58:20;;;;;;;3.20;0.57;;;19.40;70.60;;;;;;2068227;28;20038;-56
2023/12/23 02:59:20;;;;;;;1.05;0.43;;;19.50;70.60;;;;;;2070371;28;20454;-55
2023/12/23 03:00:21;;;;;;;1.67;0.90;;;19.40;70.60;;;;;;2069074;28;20025;-55
2023/12/23 03:01:22;;;;;;;2.65;1.33;;;19.40;70.50;;;;;;2068587;28;20023;-55
2023/12/23 03:02:23;;;;;;;2.42;0.70;;;19.40;70.50;;;;;;2068538;28;20026;-53
2023/12/23 03:03:23;;;;;;;2.97;0.73;;;19.40;70.60;;;;;;2069186;28;20018;-53
2023/12/23 03:04:24;;;;;;;1.35;0.70;;;19.40;70.60;;;;;;2068109;28;20025;-54
2023/12/23 03:05:24;;;;;;;1.95;0.60;;;19.40;70.60;;;;;;2066136;28;20089;-55
2023/12/23 03:06:25;;;;;;;1.85;0.65;;;19.40;70.60;;;;;;2070710;28;20107;-53
2023/12/23 03:07:26;;;;;;;2.15;0.80;;;19.30;70.60;;;;;;2071168;28;20477;-54
2023/12/23 03:08:26;;;;;;;2.90;0.70;;;19.40;70.70;;;;;;2068675;28;20026;-52
2023/12/23 03:09:27;;;;;;;2.10;0.68;;;19.20;70.60;;;;;;2071081;28;20057;-52
2023/12/23 03:10:27;;;;;;;1.50;0.57;;;19.30;70.70;;;;;;2066885;28;20110;-55
2023/12/23 03:11:28;;;;;;;2.72;0.80;;;19.40;70.70;;;;;;2071223;28;20497;-53
2023/12/23 03:12:28;;;;;;;4.43;0.57;;;19.40;70.70;;;;;;2067572;28;20044;-52
2023/12/23 03:13:29;;;;;;;1.90;0.55;;;19.40;70.70;;;;;;2068181;28;20022;-51
2023/12/23 03:14:29;;;;;;;4.15;0.90;;;19.40;70.70;;;;;;2065856;28;20057;-53
2023/12/23 03:15:30;;;;;;;1.65;0.65;;;19.30;70.60;;;;;;2070717;28;20519;-55
2023/12/23 03:16:34;;;;;;;3.13;0.85;;;19.40;70.70;;;;;;2069193;28;20451;-53
2023/12/23 03:17:34;;;;;;;1.48;0.50;;;19.30;70.60;;;;;;2069658;28;20018;-52
2023/12/23 03:18:35;;;;;;;2.05;0.70;;;19.30;70.60;;;;;;2068269;28;20026;-55
2023/12/23 03:19:35;;;;;;;1.40;0.55;;;19.30;70.60;;;;;;2069048;28;20026;-53
2023/12/23 03:20:36;;;;;;;5.32;0.93;;;19.40;70.70;;;;;;2069402;28;20027;-55
2023/12/23 03:21:44;;;;;;;1.73;0.73;;;19.30;70.60;;;;;;2071420;28;20026;-52
2023/12/23 03:22:44;;;;;;;2.45;0.70;;;19.40;70.70;;;;;;2068677;28;20573;-54
2023/12/23 03:23:45;;;;;;;3.17;0.65;;;19.30;70.70;;;;;;2066952;28;20029;-51
2023/12/23 03:24:46;;;;;;;1.60;0.50;;;19.30;70.60;;;;;;2068158;28;20088;-55
2023/12/23 03:25:46;;;;;;;2.58;0.65;;;19.30;70.70;;;;;;2069498;28;20072;-55
2023/12/23 03:26:47;;;;;;;1.45;0.60;;;19.30;70.60;;;;;;2068271;28;20037;-54
2023/12/23 03:27:47;;;;;;;2.08;0.60;;;19.30;70.60;;;;;;2068197;28;20026;-52
2023/12/23 03:28:48;;;;;;;1.65;0.60;;;19.40;70.70;;;;;;2067406;28;20068;-52
2023/12/23 03:29:48;;;;;;;2.78;0.70;;;19.30;70.70;;;;;;2068325;28;20072;-53
2023/12/23 03:30:49;;;;;;;1.38;0.70;;;19.20;70.60;;;;;;2068884;28;20026;-53
2023/12/23 03:31:49;;;;;;;1.77;0.75;;;19.30;70.60;;;;;;2068844;28;20022;-53
2023/12/23 03:32:50;;;;;;;1.73;0.70;;;19.30;70.60;;;;;;2068754;28;20029;-51
2023/12/23 03:33:50;;;;;;;2.08;0.90;;;19.30;70.60;;;;;;2067949;28;20529;-52
2023/12/23 03:34:51;;;;;;;1.17;0.60;;;19.30;70.60;;;;;;2067922;28;20064;-53
2023/12/23 03:35:51;;;;;;;2.50;0.70;;;19.30;70.60;;;;;;2068465;28;20026;-51
2023/12/23 03:36:52;;;;;;;1.77;0.90;;;19.30;70.60;;;;;;2069284;28;20030;-52
2023/12/23 03:37:53;;;;;;;1.95;0.65;;;19.30;70.70;;;;;;2068516;28;20519;-55
2023/12/23 03:38:55;;;;;;;2.35;0.73;;;19.30;70.70;;;;;;2069099;28;20037;-55
2023/12/23 03:39:56;;;;;;;1.67;0.80;;;19.30;70.70;;;;;;2068842;28;20026;-55
2023/12/23 03:40:56;;;;;;;1.95;0.55;;;19.30;70.70;;;;;;2069227;28;20033;-53
2023/12/23 03:41:57;;;;;;;1.33;0.60;;;19.30;70.70;;;;;;2067713;28;20325;-53
2023/12/23 03:42:57;;;;;;;1.38;0.65;;;19.30;70.70;;;;;;2070087;28;20062;-53
2023/12/23 03:43:58;;;;;;;2.55;0.63;;;19.30;70.70;;;;;;2069656;28;20028;-55
2023/12/23 03:44:58;;;;;;;1.58;0.47;;;19.30;70.70;;;;;;2070936;28;20080;-54
2023/12/23 03:45:59;;;;;;;2.65;0.75;;;19.30;70.70;;;;;;2070787;28;20026;-53
2023/12/23 03:46:59;;;;;;;1.45;0.63;;;19.40;70.70;;;;;;2069249;28;20058;-53
2023/12/23 03:48:00;;;;;;;2.75;0.80;;;19.30;70.70;;;;;;2065660;28;20045;-52
2023/12/23 03:49:01;;;;;;;1.05;0.60;;;19.30;70.70;;;;;;2070305;28;20021;-54
2023/12/23 03:50:01;;;;;;;1.75;0.45;;;19.30;70.70;;;;;;2068689;28;20080;-56
2023/12/23 03:51:02;;;;;;;2.13;0.82;;;19.30;70.70;;;;;;2069174;28;20022;-51
2023/12/23 03:52:03;;;;;;;1.70;0.88;;;19.30;70.70;;;;;;2069035;28;20058;-52
2023/12/23 03:53:03;;;;;;;1.95;0.50;;;19.30;70.70;;;;;;2069150;28;20041;-52
2023/12/23 03:54:04;;;;;;;2.17;0.52;;;19.30;70.70;;;;;;2070406;28;20022;-53
2023/12/23 03:55:05;;;;;;;1.35;0.50;;;19.30;70.70;;;;;;2069440;28;20633;-51
2023/12/23 03:56:06;;;;;;;1.33;0.55;;;19.20;70.60;;;;;;2065098;28;20027;-52
2023/12/23 03:57:06;;;;;;;3.25;0.88;;;19.20;71.20;;;;;;2068483;28;20029;-51
2023/12/23 03:58:07;;;;;;;1.15;0.75;;;19.30;70.70;;;;;;2068158;28;20497;-54
2023/12/23 03:59:07;;;;;;;1.42;0.57;;;19.30;70.70;;;;;;2067397;28;20374;-54
2023/12/23 04:00:08;;;;;;;1.42;0.60;;;19.30;70.70;;;;;;2070382;28;20038;-55
2023/12/23 04:01:09;;;;;;;1.48;0.70;;;19.20;70.60;;;;;;2069961;28;20112;-53
2023/12/23 04:02:10;;;;;;;2.35;0.63;;;19.20;70.60;;;;;;2070008;28;20389;-55
2023/12/23 04:03:10;;;;;;;1.75;0.65;;;19.20;70.60;;;;;;2069343;28;20489;-53
2023/12/23 04:04:11;;;;;;;2.60;0.82;;;19.20;70.70;;;;;;2069712;28;20030;-55
2023/12/23 04:05:11;;;;;;;1.23;0.47;;;19.20;70.60;;;;;;2070118;28;20037;-53
2023/12/23 04:06:12;;;;;;;0.65;0.45;;;19.20;70.60;;;;;;2071001;28;20567;-53
2023/12/23 04:07:13;;;;;;;1.55;0.60;;;19.20;70.60;;;;;;2070106;28;20045;-54
2023/12/23 04:08:13;;;;;;;1.55;0.55;;;19.20;70.60;;;;;;2069472;28;20052;-52
2023/12/23 04:09:17;;;;;;;1.90;0.65;;;19.20;70.60;;;;;;2066046;28;20022;-54
2023/12/23 04:10:18;;;;;;;1.05;0.60;;;19.20;70.60;;;;;;2070085;28;20049;-55
2023/12/23 04:11:19;;;;;;;1.58;0.50;;;19.20;70.60;;;;;;2068315;28;20033;-54
2023/12/23 04:12:19;;;;;;;0.82;0.50;;;19.20;70.60;;;;;;2068930;28;20026;-53
2023/12/23 04:13:20;;;;;;;1.77;0.60;;;19.20;70.60;;;;;;2069912;28;20076;-52
2023/12/23 04:14:20;;;;;;;1.42;0.70;;;19.20;70.60;;;;;;2070374;28;20033;-51
2023/12/23 04:15:21;;;;;;;1.20;0.70;;;19.20;70.60;;;;;;2069077;28;20072;-55
2023/12/23 04:16:22;;;;;;;1.98;0.52;;;19.20;70.60;;;;;;2070742;28;20029;-54
2023/12/23 04:17:22;;;;;;;1.60;0.57;;;19.20;70.70;;;;;;2068686;28;20018;-53
2023/12/23 04:18:23;;;;;;;1.77;0.60;;;19.20;70.60;;;;;;2071136;28;20034;-52
2023/12/23 04:19:23;;;;;;;1.20;0.55;;;19.20;70.60;;;;;;2070684;28;20034;-55
2023/12/23 04:20:24;;;;;;;1.38;0.73;;;19.20;70.60;;;;;;2070385;28;20113;-53
2023/12/23 04:21:24;;;;;;;0.57;0.52;;;19.30;70.70;;;;;;2068182;28;20098;-55
2023/12/23 04:22:25;;;;;;;1.73;0.70;;;19.20;70.60;;;;;;2069157;28;20030;-52
2023/12/23 04:23:25;;;;;;;0.95;0.50;;;19.20;70.60;;;;;;2069574;28;20047;-53
2023/12/23 04:24:26;;;;;;;2.17;0.50;;;19.20;70.60;;;;;;2069103;28;20130;-53
2023/12/23 04:25:26;;;;;;;1.48;0.60;;;19.20;70.60;;;;;;2069585;28;20018;-56
2023/12/23 04:26:29;;;;;;;1.20;0.50;;;19.20;70.60;;;;;;2069190;28;20417;-53
2023/12/23 04:27:29;;;;;;;2.17;0.43;;;19.20;70.60;;;;;;2068415;28;20024;-52
2023/12/23 04:28:30;;;;;;;1.88;0.60;;;19.20;70.60;;;;;;2069819;28;20084;-53
2023/12/23 04:29:32;;;;;;;0.80;0.52;;;19.20;70.70;;;;;;2070699;28;20060;-56
2023/12/23 04:30:32;;;;;;;2.00;0.60;;;19.20;70.70;;;;;;2068427;28;20069;-52
2023/12/23 04:31:33;;;;;;;2.03;0.70;;;19.20;70.60;;;;;;2070161;28;20066;-52
2023/12/23 04:32:33;;;;;;;1.45;0.68;;;19.20;70.70;;;;;;2069158;28;20210;-53
2023/12/23 04:33:34;;;;;;;1.70;0.45;;;19.20;70.60;;;;;;2069999;28;20026;-53
2023/12/23 04:34:37;;;;;;;1.42;0.68;;;19.20;70.60;;;;;;2069313;28;20023;-56
2023/12/23 04:35:37;;;;;;;1.20;0.50;;;19.20;70.60;;;;;;2070272;28;20029;-53
2023/12/23 04:36:38;;;;;;;1.30;0.43;;;19.20;70.70;;;;;;2070823;28;20026;-52
2023/12/23 04:37:41;;;;;;;1.00;0.50;;;19.20;70.60;;;;;;2072519;28;20018;-53
2023/12/23 04:38:42;;;;;;;2.05;0.55;;;19.20;70.60;;;;;;2071963;28;20029;-53
2023/12/23 04:39:43;;;;;;;2.28;0.60;;;19.20;70.60;;;;;;2070577;28;20423;-52
2023/12/23 04:40:44;;;;;;;1.67;0.80;;;19.20;70.60;;;;;;2072513;28;20042;-51
2023/12/23 04:41:48;;;;;;;0.60;0.40;;;19.10;70.60;;;;;;2071750;28;20026;-53
2023/12/23 04:42:48;;;;;;;1.40;0.52;;;19.10;70.60;;;;;;2069881;28;20029;-54
2023/12/23 04:43:49;;;;;;;1.35;0.55;;;19.20;70.60;;;;;;2072425;28;20324;-53
2023/12/23 04:44:49;;;;;;;1.42;0.60;;;19.20;70.60;;;;;;2070511;28;20050;-53
2023/12/23 04:45:50;;;;;;;1.80;0.52;;;19.10;70.60;;;;;;2070635;28;20026;-53
2023/12/23 04:46:51;;;;;;;1.20;0.68;;;19.10;70.60;;;;;;2070212;28;20076;-53
2023/12/23 04:47:51;;;;;;;2.28;0.70;;;19.10;70.60;;;;;;2071398;28;20049;-54
2023/12/23 04:48:52;;;;;;;1.00;0.38;;;19.20;70.70;;;;;;2070527;28;20025;-52
2023/12/23 04:49:52;;;;;;;0.55;0.35;;;19.10;70.70;;;;;;2071870;28;20026;-54
2023/12/23 04:50:53;;;;;;;2.47;0.47;;;19.10;70.70;;;;;;2069866;28;20157;-54
2023/12/23 04:51:53;;;;;;;1.35;0.50;;;19.10;70.70;;;;;;2072433;28;20026;-54
2023/12/23 04:52:54;;;;;;;1.58;0.60;;;19.10;70.70;;;;;;2070095;28;20014;-55
2023/12/23 04:53:55;;;;;;;1.95;0.50;;;19.10;70.80;;;;;;2072078;28;20458;-53
2023/12/23 04:54:55;;;;;;;2.00;0.60;;;19.10;70.80;;;;;;2070280;28;20076;-52
2023/12/23 04:55:56;;;;;;;1.02;0.50;;;19.10;70.80;;;;;;2069807;28;20022;-56
2023/12/23 04:56:56;;;;;;;2.60;0.47;;;19.10;70.80;;;;;;2070387;28;20057;-53
2023/12/23 04:57:57;;;;;;;1.00;0.52;;;19.10;71.40;;;;;;2071534;28;20087;-52
2023/12/23 04:58:58;;;;;;;0.82;0.60;;;19.10;70.90;;;;;;2071613;28;20341;-54
2023/12/23 04:59:58;;;;;;;1.25;0.45;;;19.10;70.90;;;;;;2070753;28;20152;-52
2023/12/23 05:00:59;;;;;;;1.55;0.68;;;19.20;71.00;;;;;;2069934;28;20445;-54
2023/12/23 05:02:00;;;;;;;1.77;0.60;;;19.10;70.90;;;;;;2072601;28;20384;-55
2023/12/23 05:03:00;;;;;;;1.17;0.60;;;19.10;71.00;;;;;;2071537;28;20104;-54
2023/12/23 05:04:01;;;;;;;1.48;0.60;;;19.10;71.00;;;;;;2070538;28;20484;-56
2023/12/23 05:05:01;;;;;;;1.45;0.60;;;19.10;71.00;;;;;;2071901;28;20496;-53
2023/12/23 05:06:03;;;;;;;1.80;0.60;;;19.10;71.00;;;;;;2069618;28;20416;-54
2023/12/23 05:07:03;;;;;;;1.05;0.60;;;19.10;71.00;;;;;;2070800;28;20030;-55
2023/12/23 05:08:05;;;;;;;2.33;0.70;;;19.10;71.70;;;;;;2071884;28;20109;-55
2023/12/23 05:09:05;;;;;;;2.97;0.65;;;19.10;71.10;;;;;;2069455;28;20018;-53
2023/12/23 05:10:06;;;;;;;1.88;0.70;;;19.10;71.10;;;;;;2072530;28;20026;-55
2023/12/23 05:11:07;;;;;;;2.65;0.60;;;19.10;71.10;;;;;;2070641;28;20032;-54
2023/12/23 05:12:08;;;;;;;1.23;0.60;;;19.10;71.10;;;;;;2070536;28;20069;-55
2023/12/23 05:13:08;;;;;;;1.27;0.70;;;19.00;71.00;;;;;;2069721;28;20515;-55
2023/12/23 05:14:09;;;;;;;1.23;0.50;;;19.10;71.10;;;;;;2070763;28;20022;-52
2023/12/23 05:15:09;;;;;;;1.58;0.63;;;19.10;71.10;;;;;;2071726;28;20049;-51
2023/12/23 05:16:10;;;;;;;0.88;0.50;;;19.10;71.10;;;;;;2070239;28;20022;-54
2023/12/23 05:17:11;;;;;;;1.30;0.50;;;19.10;71.10;;;;;;2070563;28;20413;-53
2023/12/23 05:18:11;;;;;;;1.05;0.50;;;19.10;71.20;;;;;;2069801;28;20515;-54